Date,TemperatureHighF,TemperatureAvgF,TemperatureLowF,DewpointHighF,DewpointAvgF,DewpointLowF,HumidityHigh,HumidityAvg,HumidityLow,PressureMaxIn,PressureMinIn,WindSpeedMaxMPH,WindSpeedAvgMPH,GustSpeedMaxMPH,PrecipitationSumIn
2013-4-1,60.0,44.3,31.0,47.0,36.3,14.0,97,76,41,29.82,29.45,25,4,25,0.09
2013-4-2,39.0,31.3,25.0,18.0,14.2,8.0,67,48,29,29.99,29.82,25,5,28,0.00
2013-4-3,43.0,33.2,26.0,18.0,14.5,11.0,66,45,27,30.20,29.95,27,6,30,0.00
2013-4-4,54.0,38.3,24.0,29.0,18.3,11.0,80,47,21,30.33,30.03,16,3,18,0.00
2013-4-5,60.0,43.0,32.0,33.0,26.8,16.0,91,58,20,30.07,29.56,26,4,26,0.00
2013-4-6,47.0,36.8,29.0,26.0,13.0,4.0,70,38,18,30.34,29.89,20,4,24,0.00
2013-4-7,53.0,40.0,24.0,43.0,28.8,16.0,93,65,32,30.34,29.97,20,3,23,0.00
2013-4-8,67.0,52.2,41.0,44.0,38.1,31.0,97,65,29,30.01,29.90,16,2,17,0.00
2013-4-9,72.0,57.3,46.0,51.0,42.8,37.0,97,63,35,30.00,29.72,22,3,31,0.00
2013-4-10,66.0,54.4,45.0,51.0,47.1,41.0,97,79,52,29.95,29.74,13,2,15,0.19
2013-4-11,57.0,48.9,38.0,47.5,39.3,26.0,97,72,42,30.11,29.78,13,3,15,0.02
2013-4-12,38.0,36.5,35.0,36.0,34.8,32.0,96,93,78,30.13,29.76,17,5,17,0.43
2013-4-13,54.0,42.8,33.0,40.0,34.7,32.0,96,75,46,29.89,29.73,15,3,17,0.01
2013-4-14,51.0,42.4,34.0,39.0,30.8,23.0,96,66,39,30.22,29.88,22,3,22,0.00
2013-4-15,61.0,45.8,30.0,35.0,30.6,24.0,86,57,33,30.37,30.19,12,2,12,0.00
2013-4-16,64.0,49.3,34.0,51.0,42.4,33.0,96,79,47,30.38,30.02,20,4,20,0.00
2013-4-17,67.0,57.5,49.0,54.0,38.7,28.0,97,55,23,30.17,30.01,16,4,17,0.00
2013-4-18,62.0,51.0,36.0,46.0,34.3,28.0,89,56,32,30.38,30.09,15,4,17,0.00
2013-4-19,71.0,60.9,50.0,63.0,58.4,46.0,98,92,64,30.09,29.57,20,5,26,0.01
2013-4-20,62.0,50.8,40.0,61.5,39.7,24.0,98,69,36,30.22,29.54,20,5,22,0.58
2013-4-21,54.0,41.8,30.0,31.0,21.6,18.0,79,45,25,30.65,30.22,21,4,21,0.00
2013-4-22,54.0,43.3,31.0,35.0,29.1,23.0,95,61,32,30.69,30.53,15,4,17,0.00
2013-4-23,41.0,38.2,36.0,39.0,36.2,31.0,96,92,78,30.55,30.06,22,3,22,0.00
2013-4-24,74.0,53.5,39.0,49.0,42.3,35.0,97,73,25,30.06,29.68,16,4,19,0.00
2013-4-25,62.0,52.4,44.0,52.0,33.8,18.0,97,55,22,30.24,29.79,22,4,22,0.02
2013-4-26,65.0,51.1,40.0,41.0,31.7,23.0,87,49,25,30.38,30.20,11,3,13,0.00
2013-4-27,67.0,50.4,35.0,45.0,36.2,28.0,97,65,25,30.40,30.16,12,2,13,0.00
2013-4-28,70.0,52.9,36.0,47.5,34.4,24.0,97,57,25,30.31,30.09,15,2,15,0.00
2013-4-29,66.0,53.5,44.0,48.0,36.7,23.0,97,60,25,30.23,30.10,12,2,13,0.00
2013-4-30,73.0,60.0,43.0,38.0,26.6,18.0,71,30,17,30.31,30.12,13,2,13,0.00